Time;durP1;ratioP1;P1;durP2;ratioP2;P2;SDS_P1;SDS_P2;PMS_P1;PMS_P2;Temp;Humidity;BMP_temperature;BMP_pressure;BME280_temperature;BME280_humidity;BME280_pressure;Samples;Min_cycle;Max_cycle;Signal;HPM_P1;HPM_P2
2021/12/24 00:01:55;;;;;;;8.55;7.20;;;4.80;99.90;;;;;;5009877;28;20499;-83
2021/12/24 00:04:22;;;;;;;7.28;6.20;;;4.80;99.90;;;;;;5006633;28;20184;-83
2021/12/24 00:06:49;;;;;;;6.60;5.40;;;4.80;99.90;;;;;;5002738;28;20137;-83
2021/12/24 00:09:30;;;;;;;6.40;5.22;;;4.90;99.90;;;;;;5020539;28;20133;-83
2021/12/24 00:12:00;;;;;;;5.13;4.50;;;4.90;99.90;;;;;;5004196;28;20460;-83
2021/12/24 00:14:28;;;;;;;4.55;4.15;;;4.90;99.90;;;;;;5002791;28;20081;-83
2021/12/24 00:17:00;;;;;;;4.20;3.90;;;4.90;99.90;;;;;;5020360;28;20488;-82
2021/12/24 00:35:07;;;;;;;3.72;3.22;;;4.90;99.90;;;;;;5023238;28;20046;-83
2021/12/24 00:35:58;;;;;;;2.92;2.60;;;5.00;99.90;;;;;;5024961;28;20081;-83
2021/12/24 00:38:24;;;;;;;2.50;2.30;;;5.00;99.90;;;;;;5023153;28;20456;-83
2021/12/24 00:40:52;;;;;;;3.60;2.50;;;5.10;99.90;;;;;;5006722;28;20121;-84
2021/12/24 00:43:21;;;;;;;1.90;1.80;;;5.10;99.90;;;;;;5023557;28;20416;-83
2021/12/24 00:45:51;;;;;;;1.58;1.48;;;5.10;99.90;;;;;;5023712;28;20074;-83
2021/12/24 00:48:19;;;;;;;1.55;1.45;;;5.20;99.90;;;;;;5007306;28;20077;-81
2021/12/24 00:55:59;;;;;;;1.23;1.00;;;5.30;99.90;;;;;;5022521;28;20077;-83
2021/12/24 00:58:26;;;;;;;1.00;1.00;;;5.40;99.90;;;;;;5005703;28;20088;-81
2021/12/24 01:00:52;;;;;;;0.85;0.85;;;5.50;99.90;;;;;;5005537;28;20499;-83
2021/12/24 01:03:19;;;;;;;1.23;1.10;;;5.50;99.90;;;;;;5020789;28;20092;-79
2021/12/24 01:05:47;;;;;;;0.90;0.90;;;5.50;99.90;;;;;;5016394;28;20128;-79
2021/12/24 01:08:14;;;;;;;0.82;0.82;;;5.80;99.90;;;;;;4999464;28;20522;-77
2021/12/24 01:10:45;;;;;;;1.30;1.13;;;5.90;99.90;;;;;;5015996;28;20097;-81
2021/12/24 01:13:13;;;;;;;1.50;0.93;;;6.00;99.90;;;;;;5000142;28;20060;-80
2021/12/24 01:15:52;;;;;;;0.82;0.82;;;6.00;99.90;;;;;;5017387;28;20467;-79
2021/12/24 01:18:32;;;;;;;1.00;0.93;;;6.10;99.90;;;;;;5000120;28;20112;-79
2021/12/24 01:23:51;;;;;;;1.23;0.85;;;6.20;99.90;;;;;;4996798;28;20049;-80
2021/12/24 01:29:56;;;;;;;0.77;0.77;;;6.20;99.90;;;;;;5017589;28;20140;-80
2021/12/24 01:40:26;;;;;;;0.70;0.70;;;6.30;99.90;;;;;;5017120;28;20169;-79
2021/12/24 01:42:54;;;;;;;0.85;0.80;;;6.30;99.90;;;;;;5001109;28;20418;-80
2021/12/24 01:45:26;;;;;;;0.90;0.90;;;6.30;99.90;;;;;;5017699;28;20084;-80
2021/12/24 01:47:56;;;;;;;0.57;0.57;;;6.30;99.90;;;;;;4999543;28;20072;-79
2021/12/24 01:50:25;;;;;;;0.63;0.63;;;6.30;99.90;;;;;;5016853;28;20060;-79
2021/12/24 01:52:53;;;;;;;0.93;0.93;;;6.40;99.90;;;;;;4999390;28;20050;-79
2021/12/24 01:55:21;;;;;;;0.80;0.80;;;6.40;99.90;;;;;;5016648;28;20152;-79
2021/12/24 01:57:48;;;;;;;0.77;0.77;;;6.50;99.90;;;;;;5016043;28;20137;-79
2021/12/24 02:00:19;;;;;;;0.80;0.80;;;6.50;99.90;;;;;;5016072;28;20080;-79
2021/12/24 02:02:46;;;;;;;0.90;0.90;;;6.50;99.90;;;;;;5017042;28;20486;-79
2021/12/24 02:05:14;;;;;;;1.20;1.10;;;6.60;99.90;;;;;;5015972;28;20561;-80
2021/12/24 02:07:41;;;;;;;2.88;1.27;;;6.60;99.90;;;;;;4998082;28;20133;-79
2021/12/24 02:10:11;;;;;;;1.23;1.23;;;6.60;99.90;;;;;;4998370;28;20137;-80
2021/12/24 02:12:38;;;;;;;1.10;1.10;;;6.60;99.90;;;;;;5015915;28;20217;-78
2021/12/24 02:15:17;;;;;;;1.10;1.10;;;6.60;99.90;;;;;;4998312;28;20140;-80
2021/12/24 02:28:46;;;;;;;1.55;1.45;;;6.50;99.90;;;;;;5015412;28;20054;-79
2021/12/24 02:31:19;;;;;;;1.20;1.20;;;6.60;99.90;;;;;;5015529;28;20053;-79
2021/12/24 02:33:46;;;;;;;1.40;1.30;;;6.60;99.90;;;;;;5015336;28;20053;-79
2021/12/24 02:36:13;;;;;;;1.50;1.42;;;6.60;99.90;;;;;;5015131;28;20144;-78
2021/12/24 02:38:40;;;;;;;1.48;1.38;;;6.60;99.90;;;;;;4998167;28;20503;-80
2021/12/24 02:41:08;;;;;;;1.50;1.40;;;6.50;99.90;;;;;;5013945;28;20050;-76
2021/12/24 02:43:36;;;;;;;2.15;2.05;;;6.50;99.90;;;;;;4995673;28;20542;-76
2021/12/24 02:46:10;;;;;;;2.20;2.08;;;6.60;99.90;;;;;;5012984;28;20137;-79
2021/12/24 02:54:12;;;;;;;2.85;2.65;;;6.80;99.90;;;;;;5015015;28;20085;-79
2021/12/24 02:56:41;;;;;;;3.92;3.63;;;6.90;99.90;;;;;;4997324;28;20054;-79
2021/12/24 02:59:12;;;;;;;4.60;4.20;;;7.00;99.90;;;;;;5013645;28;20054;-79
2021/12/24 03:01:41;;;;;;;4.85;4.45;;;7.10;99.90;;;;;;4997018;28;20056;-78
2021/12/24 03:04:09;;;;;;;5.32;4.75;;;7.20;99.90;;;;;;4997697;28;20045;-80
2021/12/24 03:06:41;;;;;;;5.30;4.85;;;7.20;99.90;;;;;;4997328;28;20041;-79
2021/12/24 03:09:12;;;;;;;5.78;5.28;;;7.20;99.90;;;;;;4997478;28;20479;-79
2021/12/24 03:11:38;;;;;;;7.30;4.82;;;7.20;99.90;;;;;;4997443;28;20049;-78
2021/12/24 03:14:07;;;;;;;5.45;4.93;;;7.20;99.90;;;;;;5015499;28;20479;-79
2021/12/24 03:16:37;;;;;;;5.22;4.80;;;7.30;99.90;;;;;;4998024;28;20061;-80
2021/12/24 03:19:05;;;;;;;5.10;4.63;;;7.30;99.90;;;;;;5015268;28;20107;-79
2021/12/24 03:21:39;;;;;;;6.43;5.55;;;7.30;99.90;;;;;;4996546;28;20046;-76
2021/12/24 03:26:39;;;;;;;7.07;5.72;;;7.30;99.90;;;;;;5016465;28;20127;-80
2021/12/24 03:29:09;;;;;;;5.80;5.13;;;7.30;99.90;;;;;;4999753;28;20050;-81
2021/12/24 03:31:37;;;;;;;5.43;5.03;;;7.40;99.90;;;;;;4996910;28;20055;-79
2021/12/24 03:34:06;;;;;;;5.90;5.30;;;7.30;99.90;;;;;;5001284;28;20145;-80
2021/12/24 03:36:33;;;;;;;5.15;4.50;;;7.40;99.90;;;;;;5016468;28;20058;-79
2021/12/24 03:39:01;;;;;;;6.43;4.93;;;7.40;99.90;;;;;;5015089;28;20108;-82
2021/12/24 03:41:28;;;;;;;4.90;4.50;;;7.40;99.90;;;;;;5016348;28;20045;-80
2021/12/24 03:43:54;;;;;;;4.45;4.15;;;7.40;99.90;;;;;;5014549;28;20125;-83
2021/12/24 03:46:30;;;;;;;5.38;4.88;;;7.50;99.90;;;;;;5015187;28;20141;-82
2021/12/24 03:49:02;;;;;;;4.43;4.13;;;7.40;99.90;;;;;;5014898;28;20056;-82
2021/12/24 03:51:51;;;;;;;4.38;4.03;;;7.40;99.90;;;;;;5030910;28;20542;-82
2021/12/24 03:57:03;;;;;;;4.30;3.90;;;7.50;99.90;;;;;;5020407;28;20052;-82
2021/12/24 03:59:29;;;;;;;4.07;3.75;;;7.50;99.90;;;;;;5020086;28;20096;-82
2021/12/24 04:01:56;;;;;;;4.13;3.83;;;7.50;99.90;;;;;;5018657;28;20053;-82
2021/12/24 04:04:23;;;;;;;5.43;4.22;;;7.50;99.90;;;;;;5018909;28;20066;-82
2021/12/24 04:06:50;;;;;;;4.05;3.75;;;7.40;99.90;;;;;;5035067;28;20054;-81
2021/12/24 04:09:17;;;;;;;4.30;3.90;;;7.40;99.90;;;;;;5019011;28;20133;-82
2021/12/24 04:11:43;;;;;;;5.30;3.97;;;7.50;99.90;;;;;;5018767;28;20137;-82
2021/12/24 04:14:10;;;;;;;4.20;3.90;;;7.50;99.90;;;;;;5018927;28;20113;-83
2021/12/24 04:16:38;;;;;;;4.30;4.00;;;7.50;99.90;;;;;;5020790;28;20396;-82
2021/12/24 04:27:14;;;;;;;4.90;4.50;;;7.50;99.90;;;;;;5019967;28;20686;-80
2021/12/24 04:29:41;;;;;;;4.47;4.10;;;7.40;99.90;;;;;;5033953;28;20049;-80
2021/12/24 04:32:12;;;;;;;5.22;4.72;;;7.40;99.90;;;;;;5019641;28;20064;-82
2021/12/24 04:34:43;;;;;;;4.97;4.57;;;7.40;99.90;;;;;;5019880;28;20404;-82
2021/12/24 05:03:47;;;;;;;5.10;4.60;;;7.40;99.90;;;;;;5019644;28;20046;-82
2021/12/24 05:06:31;;;;;;;5.88;5.00;;;7.50;99.90;;;;;;5000790;28;20060;-82
2021/12/24 05:09:05;;;;;;;5.25;4.78;;;7.60;99.90;;;;;;5002630;28;20128;-82
2021/12/24 05:11:32;;;;;;;5.45;4.95;;;7.60;99.90;;;;;;5000346;28;20500;-82
2021/12/24 05:13:59;;;;;;;4.90;4.38;;;7.60;99.90;;;;;;5018682;28;20140;-82
2021/12/24 05:16:44;;;;;;;8.18;5.18;;;7.70;99.90;;;;;;5000699;28;20078;-82
2021/12/24 05:21:42;;;;;;;5.25;4.72;;;7.70;99.90;;;;;;5017416;28;20396;-80
2021/12/24 05:24:14;;;;;;;5.57;4.60;;;7.70;99.90;;;;;;5000367;28;20049;-83
2021/12/24 05:26:44;;;;;;;4.90;4.50;;;7.80;99.90;;;;;;5000592;28;20050;-81
2021/12/24 05:29:13;;;;;;;5.13;4.72;;;7.80;99.90;;;;;;5000275;28;20046;-82
2021/12/24 05:31:40;;;;;;;5.22;4.13;;;7.90;99.90;;;;;;4999508;28;20133;-82
2021/12/24 05:34:07;;;;;;;4.63;3.90;;;7.90;99.90;;;;;;5017158;28;20053;-81
2021/12/24 05:36:34;;;;;;;4.20;3.80;;;8.00;99.90;;;;;;5017561;28;20232;-82
2021/12/24 05:39:02;;;;;;;5.95;4.00;;;8.00;99.90;;;;;;4999832;28;20049;-82
2021/12/24 05:41:29;;;;;;;4.45;4.05;;;8.00;99.90;;;;;;5016069;28;20129;-82
2021/12/24 05:43:56;;;;;;;4.25;3.95;;;8.00;99.90;;;;;;4999842;28;20060;-83
2021/12/24 05:46:35;;;;;;;4.50;3.63;;;8.10;99.90;;;;;;5000849;28;20132;-82
2021/12/24 05:49:03;;;;;;;3.53;3.33;;;8.10;99.90;;;;;;4999392;28;20050;-82
2021/12/24 05:51:30;;;;;;;4.15;3.85;;;8.00;99.90;;;;;;5017236;28;20052;-82
2021/12/24 05:53:56;;;;;;;3.90;3.60;;;8.00;99.90;;;;;;4999625;28;20042;-83
2021/12/24 05:56:23;;;;;;;3.53;3.22;;;8.10;99.90;;;;;;4999321;28;20089;-82
2021/12/24 05:58:50;;;;;;;3.35;3.15;;;8.10;99.90;;;;;;5017344;28;20128;-82
2021/12/24 06:01:17;;;;;;;3.35;3.05;;;8.10;99.90;;;;;;4999123;28;20137;-82
2021/12/24 06:03:44;;;;;;;3.72;3.42;;;8.10;99.90;;;;;;4998933;28;20042;-82
2021/12/24 06:06:10;;;;;;;3.03;2.83;;;8.10;99.90;;;;;;4999209;28;20052;-82
2021/12/24 06:08:37;;;;;;;3.33;3.13;;;8.10;99.90;;;;;;5015067;28;20085;-82
2021/12/24 06:11:04;;;;;;;3.50;3.20;;;8.10;99.90;;;;;;4999300;28;20132;-81
2021/12/24 06:13:31;;;;;;;3.58;2.60;;;8.20;99.90;;;;;;5016728;28;20137;-82
2021/12/24 06:15:58;;;;;;;2.97;2.78;;;8.20;99.90;;;;;;4999598;28;20054;-82
2021/12/24 06:18:28;;;;;;;2.83;2.63;;;8.10;99.90;;;;;;4998886;28;20112;-82
2021/12/24 06:20:57;;;;;;;3.08;2.88;;;8.10;99.90;;;;;;5015609;28;20085;-82
2021/12/24 06:23:26;;;;;;;3.08;2.88;;;8.20;99.90;;;;;;4999118;28;20414;-81
2021/12/24 06:25:55;;;;;;;3.13;2.85;;;8.30;99.90;;;;;;4999854;28;20065;-81
2021/12/24 06:28:22;;;;;;;3.17;2.88;;;8.30;99.90;;;;;;4999644;28;20046;-82
2021/12/24 06:30:50;;;;;;;2.67;2.47;;;8.30;99.90;;;;;;4999219;28;20106;-81
2021/12/24 06:33:18;;;;;;;3.03;2.83;;;8.30;99.90;;;;;;5016890;28;20057;-79
2021/12/24 06:35:45;;;;;;;3.10;2.80;;;8.40;99.90;;;;;;5017483;28;20146;-81
2021/12/24 06:38:13;;;;;;;3.55;3.25;;;8.40;99.90;;;;;;5015785;28;20583;-83
2021/12/24 06:40:40;;;;;;;2.90;2.55;;;8.40;99.90;;;;;;4998155;28;20137;-81
2021/12/24 06:43:06;;;;;;;4.28;2.97;;;8.40;99.90;;;;;;5016832;28;20411;-81
2021/12/24 06:45:34;;;;;;;3.15;2.95;;;8.40;99.90;;;;;;5015575;28;20136;-82
2021/12/24 06:48:03;;;;;;;3.65;2.88;;;8.40;99.90;;;;;;5017586;28;20049;-81
2021/12/24 06:50:30;;;;;;;3.17;2.97;;;8.40;99.90;;;;;;4999371;28;20125;-82
2021/12/24 06:52:57;;;;;;;2.92;2.70;;;8.40;99.90;;;;;;5017645;28;20058;-82
2021/12/24 06:55:24;;;;;;;3.10;2.75;;;8.40;99.90;;;;;;4999869;28;20053;-81
2021/12/24 06:57:51;;;;;;;4.40;3.92;;;8.40;99.90;;;;;;5017809;28;20481;-83
2021/12/24 07:00:21;;;;;;;2.80;2.63;;;8.40;99.90;;;;;;5000290;28;20077;-80
2021/12/24 07:02:49;;;;;;;2.92;2.72;;;8.40;99.90;;;;;;4999817;28;20141;-79
2021/12/24 07:05:17;;;;;;;6.13;3.17;;;8.40;99.90;;;;;;4999922;28;20321;-81
2021/12/24 07:07:44;;;;;;;4.82;2.78;;;8.40;99.90;;;;;;5015706;28;20510;-82
2021/12/24 07:10:11;;;;;;;2.63;2.53;;;8.40;99.90;;;;;;5015581;28;20507;-81
2021/12/24 07:12:38;;;;;;;3.03;2.50;;;8.40;99.90;;;;;;4998290;28;20062;-82
2021/12/24 07:15:05;;;;;;;2.80;2.60;;;8.40;99.90;;;;;;5017103;28;20136;-83
2021/12/24 07:17:32;;;;;;;3.47;2.45;;;8.40;99.90;;;;;;5017116;28;20096;-82
2021/12/24 07:19:59;;;;;;;2.75;2.55;;;8.40;99.90;;;;;;4997301;28;20141;-82
2021/12/24 07:22:26;;;;;;;4.70;2.80;;;8.50;99.90;;;;;;4997643;28;20096;-82
2021/12/24 07:24:53;;;;;;;2.80;2.42;;;8.50;99.90;;;;;;5013448;28;20046;-82
2021/12/24 07:27:20;;;;;;;2.80;2.45;;;8.50;99.90;;;;;;5015195;28;20423;-81
2021/12/24 07:29:49;;;;;;;3.28;2.97;;;8.50;99.90;;;;;;5013517;28;20403;-80
2021/12/24 07:32:16;;;;;;;2.60;2.40;;;8.50;99.90;;;;;;5014922;28;20103;-81
2021/12/24 07:34:42;;;;;;;5.40;2.83;;;8.40;99.90;;;;;;5005722;28;20578;-81
2021/12/24 07:37:10;;;;;;;2.40;2.20;;;8.40;99.90;;;;;;5013853;28;20157;-82
2021/12/24 07:39:37;;;;;;;2.88;2.47;;;8.50;99.90;;;;;;5013239;28;20136;-82
2021/12/24 07:42:04;;;;;;;2.72;2.53;;;8.50;99.90;;;;;;5013491;28;20081;-82
2021/12/24 07:44:34;;;;;;;2.40;2.20;;;8.50;99.90;;;;;;5013213;28;20058;-82
2021/12/24 07:47:04;;;;;;;2.55;2.35;;;8.50;99.90;;;;;;5014872;28;20050;-82
2021/12/24 07:49:37;;;;;;;1.90;1.80;;;8.50;99.90;;;;;;5014642;28;20495;-82
2021/12/24 07:52:08;;;;;;;2.10;2.00;;;8.50;99.90;;;;;;5012889;28;20472;-82
2021/12/24 07:54:47;;;;;;;2.42;2.33;;;8.50;99.90;;;;;;5015220;28;20463;-82
2021/12/24 07:57:34;;;;;;;2.40;2.20;;;8.50;99.90;;;;;;5026940;28;20407;-82
2021/12/24 08:00:05;;;;;;;3.78;2.53;;;8.50;99.90;;;;;;5013881;28;20096;-81
2021/12/24 08:02:32;;;;;;;4.20;3.00;;;8.50;99.90;;;;;;5015391;28;20132;-82
2021/12/24 08:04:59;;;;;;;2.40;2.30;;;8.50;99.90;;;;;;5015689;28;20474;-81
2021/12/24 08:07:27;;;;;;;2.13;1.98;;;8.50;99.90;;;;;;5014325;28;20056;-81
2021/12/24 08:09:54;;;;;;;3.30;2.22;;;8.50;99.90;;;;;;5014099;28;20093;-82
2021/12/24 08:12:20;;;;;;;2.50;2.10;;;8.50;99.90;;;;;;5014139;28;20084;-81
2021/12/24 08:14:48;;;;;;;2.05;1.95;;;8.50;99.90;;;;;;5014251;28;20487;-81
2021/12/24 08:17:16;;;;;;;2.42;2.25;;;8.40;99.90;;;;;;5015032;28;20133;-82
2021/12/24 08:19:42;;;;;;;1.95;1.83;;;8.50;99.90;;;;;;5013510;28;20422;-82
2021/12/24 08:22:12;;;;;;;3.92;2.08;;;8.50;99.90;;;;;;5030181;28;20085;-81
2021/12/24 08:24:40;;;;;;;2.05;1.95;;;8.50;99.90;;;;;;5013958;28;20121;-82
2021/12/24 08:27:08;;;;;;;1.92;1.83;;;8.50;99.90;;;;;;5013421;28;20136;-81
2021/12/24 08:29:35;;;;;;;2.08;1.90;;;8.50;99.90;;;;;;5013413;28;20057;-82
2021/12/24 08:32:04;;;;;;;2.55;2.25;;;8.50;99.90;;;;;;5013756;28;20133;-82
2021/12/24 08:34:31;;;;;;;2.17;2.08;;;8.50;99.90;;;;;;5029926;28;20486;-81
2021/12/24 08:36:58;;;;;;;2.08;1.98;;;8.50;99.90;;;;;;5014373;28;20148;-81
2021/12/24 08:39:25;;;;;;;2.42;2.20;;;8.50;99.90;;;;;;5013639;28;20140;-81
2021/12/24 08:41:55;;;;;;;2.20;2.00;;;8.40;99.90;;;;;;5015829;28;20143;-82
2021/12/24 08:44:24;;;;;;;2.58;2.40;;;8.40;99.90;;;;;;5018450;28;20096;-82
2021/12/24 08:46:51;;;;;;;2.35;1.85;;;8.40;99.90;;;;;;5016487;28;20104;-82
2021/12/24 08:49:20;;;;;;;3.17;1.65;;;8.40;99.90;;;;;;5016085;28;20045;-81
2021/12/24 08:51:48;;;;;;;2.17;1.98;;;8.40;99.90;;;;;;5016217;28;20054;-81
2021/12/24 08:54:15;;;;;;;1.80;1.70;;;8.50;99.90;;;;;;5020044;28;20049;-81
2021/12/24 08:56:42;;;;;;;2.38;1.67;;;8.50;99.90;;;;;;5031139;28;20092;-82
2021/12/24 08:59:09;;;;;;;2.10;1.73;;;8.50;99.90;;;;;;5045395;28;20052;-80
2021/12/24 09:01:36;;;;;;;2.13;1.80;;;8.50;99.90;;;;;;5042412;28;20140;-82
2021/12/24 09:04:03;;;;;;;2.05;1.83;;;8.50;99.90;;;;;;5027499;28;20037;-82
2021/12/24 09:06:30;;;;;;;1.52;1.42;;;8.50;99.90;;;;;;5032945;28;20564;-82
2021/12/24 09:08:56;;;;;;;2.13;2.00;;;8.60;99.90;;;;;;5036456;28;20566;-82
2021/12/24 09:11:23;;;;;;;1.70;1.60;;;8.60;99.90;;;;;;5053784;28;20475;-82
2021/12/24 09:13:50;;;;;;;2.20;2.00;;;8.70;99.90;;;;;;5038194;28;20056;-83
2021/12/24 09:16:17;;;;;;;1.80;1.52;;;8.60;99.90;;;;;;5037830;28;20491;-81
2021/12/24 09:18:44;;;;;;;2.00;1.65;;;8.70;99.90;;;;;;5038113;28;20049;-82
2021/12/24 09:21:16;;;;;;;2.00;1.90;;;8.70;99.90;;;;;;5036958;28;20056;-82
2021/12/24 09:23:46;;;;;;;3.13;1.50;;;8.70;99.90;;;;;;5036233;28;20060;-80
2021/12/24 09:26:23;;;;;;;2.03;1.87;;;8.80;99.90;;;;;;5037791;28;20042;-82
2021/12/24 09:28:50;;;;;;;1.60;1.50;;;8.80;99.90;;;;;;5044850;28;20474;-82
2021/12/24 09:31:17;;;;;;;2.08;1.85;;;8.80;99.90;;;;;;5023604;28;20049;-82
2021/12/24 09:33:44;;;;;;;2.40;1.55;;;8.80;99.90;;;;;;5032194;28;20057;-82
2021/12/24 09:36:11;;;;;;;5.15;1.70;;;8.80;99.90;;;;;;5032556;28;20089;-81
2021/12/24 09:38:38;;;;;;;1.67;1.52;;;8.80;99.90;;;;;;5032419;28;20562;-82
2021/12/24 09:41:05;;;;;;;2.20;2.10;;;8.90;99.90;;;;;;5015769;28;20491;-82
2021/12/24 09:43:32;;;;;;;2.08;1.70;;;8.80;99.90;;;;;;5015961;28;20480;-82
2021/12/24 09:45:58;;;;;;;2.53;1.80;;;8.90;99.90;;;;;;5017578;28;20050;-82
2021/12/24 09:48:25;;;;;;;1.95;1.85;;;8.80;99.90;;;;;;5015803;28;20042;-82
2021/12/24 09:50:52;;;;;;;3.60;1.92;;;8.90;99.90;;;;;;5017278;28;20570;-82
2021/12/24 09:53:19;;;;;;;1.63;1.52;;;8.90;99.90;;;;;;5015366;28;20145;-82
2021/12/24 09:55:46;;;;;;;3.70;2.95;;;8.90;99.90;;;;;;5015375;28;20145;-82
2021/12/24 09:58:12;;;;;;;2.10;2.00;;;8.90;99.90;;;;;;5016783;28;20567;-82
2021/12/24 10:00:40;;;;;;;2.75;1.63;;;8.80;99.90;;;;;;5015695;28;20054;-82
2021/12/24 10:03:07;;;;;;;2.80;1.90;;;8.80;99.90;;;;;;5015098;28;20055;-82
2021/12/24 10:05:38;;;;;;;3.63;2.42;;;8.80;99.90;;;;;;5031911;28;20525;-81
2021/12/24 10:08:20;;;;;;;5.13;3.67;;;8.90;99.90;;;;;;5015362;28;20080;-82
2021/12/24 10:10:52;;;;;;;4.05;3.28;;;8.90;99.90;;;;;;5016380;28;20568;-82
2021/12/24 10:13:44;;;;;;;6.07;4.03;;;9.00;99.90;;;;;;5015344;28;20140;-82
2021/12/24 10:16:15;;;;;;;3.28;2.97;;;9.00;99.90;;;;;;5014944;28;20082;-82
2021/12/24 10:18:54;;;;;;;6.78;3.85;;;9.10;99.90;;;;;;5040775;28;20058;-82
2021/12/24 10:21:24;;;;;;;4.60;2.97;;;9.00;99.90;;;;;;5031756;28;20053;-81
2021/12/24 10:23:54;;;;;;;3.38;2.42;;;9.00;99.90;;;;;;5016183;28;20088;-82
2021/12/24 10:26:30;;;;;;;2.92;2.60;;;9.10;99.90;;;;;;5015140;28;20138;-82
2021/12/24 10:29:05;;;;;;;2.20;2.00;;;9.10;99.90;;;;;;5014964;28;20045;-81
2021/12/24 10:31:48;;;;;;;4.30;2.33;;;9.10;99.90;;;;;;5014629;28;20081;-81
2021/12/24 10:34:33;;;;;;;1.85;1.73;;;9.10;99.90;;;;;;5030378;28;20149;-82
2021/12/24 10:37:22;;;;;;;2.75;1.90;;;9.10;99.90;;;;;;5014010;28;20056;-82
2021/12/24 10:40:01;;;;;;;2.10;2.00;;;9.20;99.90;;;;;;5014405;28;20050;-83
2021/12/24 10:42:32;;;;;;;2.83;2.28;;;9.10;99.90;;;;;;5014291;28;20064;-82
2021/12/24 10:45:01;;;;;;;3.97;2.20;;;9.20;99.90;;;;;;5019862;28;20041;-82
2021/12/24 10:47:37;;;;;;;2.25;2.05;;;9.20;99.90;;;;;;5049438;28;20053;-83
2021/12/24 10:53:18;;;;;;;2.38;2.17;;;9.20;99.90;;;;;;5035113;28;20067;-83
2021/12/24 10:55:48;;;;;;;2.63;2.03;;;9.20;99.90;;;;;;5033759;28;20055;-83
2021/12/24 10:58:17;;;;;;;3.08;2.42;;;9.30;99.90;;;;;;5035479;28;20735;-82
2021/12/24 11:00:53;;;;;;;5.10;2.83;;;9.30;99.90;;;;;;5024787;28;20046;-83
2021/12/24 11:03:32;;;;;;;2.75;2.55;;;9.20;99.90;;;;;;5013011;28;20054;-79
2021/12/24 11:06:11;;;;;;;3.03;2.72;;;9.20;99.90;;;;;;5013431;28;20134;-79
2021/12/24 11:08:39;;;;;;;4.13;2.60;;;9.30;99.90;;;;;;5013234;28;20132;-79
2021/12/24 11:11:08;;;;;;;3.83;2.63;;;9.40;99.90;;;;;;5014576;28;20124;-79
2021/12/24 11:13:41;;;;;;;4.90;2.47;;;9.40;99.90;;;;;;5013275;28;20089;-79
2021/12/24 11:16:18;;;;;;;3.10;2.58;;;9.40;99.90;;;;;;5013209;28;20495;-79
2021/12/24 11:18:54;;;;;;;2.50;2.30;;;9.40;99.90;;;;;;5013449;28;20060;-78
2021/12/24 11:21:26;;;;;;;3.25;2.72;;;9.50;99.90;;;;;;5013253;28;20132;-79
2021/12/24 11:23:54;;;;;;;4.13;2.70;;;9.50;99.90;;;;;;5014165;28;20050;-80
2021/12/24 11:26:27;;;;;;;3.45;2.40;;;9.50;99.90;;;;;;5013108;28;20134;-79
2021/12/24 11:28:55;;;;;;;4.40;2.92;;;9.60;99.90;;;;;;5013276;28;20415;-79
2021/12/24 11:31:32;;;;;;;2.80;2.60;;;9.60;99.90;;;;;;5014236;28;20466;-79
2021/12/24 11:33:59;;;;;;;4.57;2.70;;;9.60;99.90;;;;;;5012576;28;20058;-79
2021/12/24 11:36:28;;;;;;;2.55;2.28;;;9.60;99.90;;;;;;5012713;28;20060;-79
2021/12/24 11:38:58;;;;;;;2.55;2.10;;;9.60;99.90;;;;;;5014624;28;20054;-80
2021/12/24 11:41:28;;;;;;;5.00;3.28;;;9.70;99.90;;;;;;5023138;28;20132;-80
2021/12/24 11:43:56;;;;;;;4.55;2.80;;;9.80;99.90;;;;;;5022819;28;20137;-80
2021/12/24 11:46:26;;;;;;;5.25;2.75;;;9.70;99.90;;;;;;5024818;28;20037;-79
2021/12/24 11:48:55;;;;;;;2.95;2.53;;;9.70;99.90;;;;;;5021632;28;20172;-80
2021/12/24 11:51:33;;;;;;;3.83;2.65;;;9.80;99.90;;;;;;5022862;28;20096;-78
2021/12/24 11:54:05;;;;;;;5.15;2.97;;;9.90;99.90;;;;;;5027473;28;20080;-79
2021/12/24 11:56:47;;;;;;;4.38;2.85;;;9.80;99.90;;;;;;5032573;28;20053;-79
2021/12/24 11:59:14;;;;;;;4.70;2.90;;;9.80;99.90;;;;;;5032785;28;20049;-79
2021/12/24 12:01:44;;;;;;;3.13;2.80;;;9.90;99.90;;;;;;5034116;28;20053;-78
2021/12/24 12:04:13;;;;;;;2.58;2.22;;;10.00;99.90;;;;;;5032515;28;20056;-80
2021/12/24 12:06:40;;;;;;;2.58;2.33;;;10.00;99.90;;;;;;5033390;28;20105;-80
2021/12/24 12:09:10;;;;;;;4.47;2.72;;;9.90;99.90;;;;;;5049773;28;20072;-80
2021/12/24 12:11:41;;;;;;;5.30;3.22;;;9.80;99.90;;;;;;5017437;28;20380;-80
2021/12/24 12:14:11;;;;;;;4.18;2.92;;;9.70;99.90;;;;;;5015668;28;20050;-80
2021/12/24 12:16:48;;;;;;;3.55;3.20;;;9.80;99.90;;;;;;5018990;28;20566;-80
2021/12/24 12:19:24;;;;;;;3.30;3.05;;;9.70;99.90;;;;;;5016418;28;20056;-79
2021/12/24 12:24:57;;;;;;;4.60;2.95;;;9.40;99.90;;;;;;5017279;28;20104;-79
2021/12/24 12:28:07;;;;;;;6.47;2.85;;;9.40;99.90;;;;;;5016188;28;20045;-80
2021/12/24 12:30:49;;;;;;;4.50;3.53;;;9.40;99.90;;;;;;5008737;28;20054;-80
2021/12/24 12:33:30;;;;;;;3.45;3.05;;;9.40;99.90;;;;;;5015641;28;20046;-79
2021/12/24 12:35:59;;;;;;;4.70;2.83;;;9.50;99.90;;;;;;4999394;28;20054;-79
2021/12/24 12:38:39;;;;;;;4.18;2.97;;;9.40;99.90;;;;;;4999495;28;20049;-79
2021/12/24 12:41:19;;;;;;;3.70;3.22;;;9.40;99.90;;;;;;5016664;28;20134;-79
2021/12/24 12:43:50;;;;;;;3.88;2.78;;;9.40;99.90;;;;;;4999198;28;20136;-80
2021/12/24 12:46:20;;;;;;;3.30;2.95;;;9.40;99.90;;;;;;4999059;28;20562;-80
2021/12/24 12:48:50;;;;;;;3.42;3.00;;;9.30;99.90;;;;;;4998839;28;20088;-79
2021/12/24 12:51:19;;;;;;;5.43;2.88;;;9.30;99.90;;;;;;4999518;28;20129;-77
2021/12/24 12:53:48;;;;;;;5.40;3.30;;;9.20;99.90;;;;;;5016681;28;20124;-78
2021/12/24 12:56:30;;;;;;;7.65;3.40;;;9.20;99.90;;;;;;4999259;28;20064;-80
2021/12/24 12:59:03;;;;;;;5.10;2.67;;;9.20;99.90;;;;;;4999012;28;20073;-77
2021/12/24 13:01:31;;;;;;;8.93;3.10;;;9.20;99.90;;;;;;4999194;28;20050;-79
2021/12/24 13:03:58;;;;;;;3.50;3.03;;;9.10;99.90;;;;;;4999600;28;20562;-79
2021/12/24 13:06:45;;;;;;;4.57;3.22;;;9.10;99.90;;;;;;5016808;28;20470;-79
2021/12/24 13:09:18;;;;;;;4.05;3.28;;;9.00;99.90;;;;;;4998989;28;20493;-80
2021/12/24 13:11:50;;;;;;;4.03;3.10;;;9.00;99.90;;;;;;4998851;28;20089;-79
2021/12/24 13:14:18;;;;;;;4.88;3.05;;;9.00;99.90;;;;;;4998866;28;20132;-80
2021/12/24 13:19:59;;;;;;;2.45;2.10;;;8.90;99.90;;;;;;5016370;28;20081;-79
2021/12/24 13:25:14;;;;;;;3.38;1.92;;;8.90;99.90;;;;;;5016327;28;20141;-81
2021/12/24 13:27:44;;;;;;;2.53;2.20;;;9.00;99.90;;;;;;5024020;28;20069;-80
2021/12/24 13:30:20;;;;;;;2.35;2.10;;;9.00;99.90;;;;;;5003005;28;20046;-81
2021/12/24 13:32:55;;;;;;;7.55;4.53;;;9.00;99.90;;;;;;5017719;28;20391;-80
2021/12/24 13:35:27;;;;;;;4.65;2.40;;;8.90;99.90;;;;;;5012977;28;20054;-80
2021/12/24 13:37:55;;;;;;;4.63;2.53;;;8.90;99.90;;;;;;5016287;28;20414;-80
2021/12/24 13:40:25;;;;;;;2.75;2.17;;;8.90;99.90;;;;;;5016023;28;20491;-80
2021/12/24 13:42:57;;;;;;;2.55;2.30;;;8.90;99.90;;;;;;5017620;28;20129;-80
2021/12/24 13:45:27;;;;;;;3.53;1.95;;;8.90;99.90;;;;;;5016642;28;20046;-79
2021/12/24 13:48:00;;;;;;;3.00;1.90;;;8.90;99.90;;;;;;5016412;28;20104;-80
2021/12/24 13:56:37;;;;;;;4.53;2.20;;;8.90;99.90;;;;;;5017497;28;20529;-80
2021/12/24 13:59:05;;;;;;;3.33;2.03;;;8.90;99.90;;;;;;5016206;28;20050;-80
2021/12/24 14:01:33;;;;;;;5.47;2.03;;;8.80;99.90;;;;;;5016909;28;20074;-81
2021/12/24 14:04:03;;;;;;;4.03;2.03;;;8.80;99.90;;;;;;5015558;28;20046;-80
2021/12/24 14:06:43;;;;;;;5.63;2.50;;;8.80;99.90;;;;;;5016067;28;20054;-79
2021/12/24 14:09:20;;;;;;;5.00;1.90;;;8.80;99.90;;;;;;5015485;28;20136;-79
2021/12/24 14:11:49;;;;;;;4.20;2.20;;;8.80;99.90;;;;;;5030583;28;20141;-80
2021/12/24 14:14:24;;;;;;;3.13;2.28;;;8.70;99.90;;;;;;5014410;28;20060;-79
2021/12/24 14:19:43;;;;;;;8.05;2.72;;;8.70;99.90;;;;;;5015565;28;20050;-79
2021/12/24 14:22:14;;;;;;;4.05;1.85;;;8.60;99.90;;;;;;5014398;28;20054;-79
2021/12/24 14:25:00;;;;;;;6.55;2.20;;;8.70;99.90;;;;;;5014103;28;20050;-80
2021/12/24 14:27:29;;;;;;;3.45;1.95;;;8.70;99.90;;;;;;5013957;28;20403;-80
2021/12/24 14:30:00;;;;;;;3.67;2.20;;;8.70;99.90;;;;;;5030317;28;20149;-80
2021/12/24 14:32:31;;;;;;;3.22;1.60;;;8.70;99.90;;;;;;5013976;28;20466;-79
2021/12/24 14:35:14;;;;;;;4.13;2.20;;;8.80;99.90;;;;;;5013651;28;20054;-80
2021/12/24 14:37:42;;;;;;;6.43;2.20;;;8.80;99.90;;;;;;5014337;28;20132;-80
2021/12/24 14:40:11;;;;;;;4.85;2.50;;;8.80;99.90;;;;;;5013128;28;20459;-80
2021/12/24 14:42:46;;;;;;;2.97;1.63;;;8.80;99.90;;;;;;5030000;28;20050;-80
2021/12/24 14:45:21;;;;;;;4.35;1.70;;;8.70;99.90;;;;;;5013976;28;20129;-79
2021/12/24 14:48:07;;;;;;;3.58;2.10;;;8.70;99.90;;;;;;5030210;28;20169;-79
2021/12/24 14:50:53;;;;;;;5.40;2.30;;;8.70;99.90;;;;;;5013478;28;20136;-79
2021/12/24 14:53:25;;;;;;;5.15;2.22;;;8.60;99.90;;;;;;5013599;28;20085;-80
2021/12/24 14:55:59;;;;;;;4.03;2.08;;;8.60;99.90;;;;;;5013515;28;20084;-80
2021/12/24 14:58:38;;;;;;;7.75;3.00;;;8.60;99.90;;;;;;5013629;28;20046;-80
2021/12/24 15:01:18;;;;;;;5.65;2.17;;;8.60;99.90;;;;;;5013390;28;20058;-80
2021/12/24 15:03:53;;;;;;;3.92;1.85;;;8.50;99.90;;;;;;5014842;28;20455;-80
2021/12/24 15:06:32;;;;;;;5.57;2.20;;;8.50;99.90;;;;;;5013199;28;20144;-80
2021/12/24 15:09:20;;;;;;;4.60;1.70;;;8.60;99.90;;;;;;5013467;28;20058;-80